sensor_id;sensor_type;location;lat;lon;timestamp;P1;durP1;ratioP1;P2;durP2;ratioP2
2388;SDS011;1205;47.984;7.668;2022-12-07T00:01:33;17.80;;;12.77;;
2388;SDS011;1205;47.984;7.668;2022-12-07T00:04:01;22.63;;;13.57;;
2388;SDS011;1205;47.984;7.668;2022-12-07T00:06:31;19.13;;;13.43;;
2388;SDS011;1205;47.984;7.668;2022-12-07T00:08:58;20.43;;;13.90;;
2388;SDS011;1205;47.984;7.668;2022-12-07T00:11:24;22.03;;;12.73;;
2388;SDS011;1205;47.984;7.668;2022-12-07T00:13:51;19.30;;;12.20;;
2388;SDS011;1205;47.984;7.668;2022-12-07T00:16:22;21.83;;;14.40;;
2388;SDS011;1205;47.984;7.668;2022-12-07T00:18:48;23.50;;;14.23;;
2388;SDS011;1205;47.984;7.668;2022-12-07T00:21:15;22.67;;;13.20;;
2388;SDS011;1205;47.984;7.668;2022-12-07T00:23:44;19.47;;;12.73;;
2388;SDS011;1205;47.984;7.668;2022-12-07T00:26:12;17.80;;;12.57;;
2388;SDS011;1205;47.984;7.668;2022-12-07T00:28:41;21.90;;;12.60;;
2388;SDS011;1205;47.984;7.668;2022-12-07T00:31:14;17.50;;;12.37;;
2388;SDS011;1205;47.984;7.668;2022-12-07T00:33:41;21.37;;;12.37;;
2388;SDS011;1205;47.984;7.668;2022-12-07T00:36:11;17.90;;;12.70;;
2388;SDS011;1205;47.984;7.668;2022-12-07T00:38:39;18.00;;;13.33;;
2388;SDS011;1205;47.984;7.668;2022-12-07T00:41:07;19.50;;;12.50;;
2388;SDS011;1205;47.984;7.668;2022-12-07T00:43:37;20.30;;;13.07;;
2388;SDS011;1205;47.984;7.668;2022-12-07T00:46:03;25.60;;;13.33;;
2388;SDS011;1205;47.984;7.668;2022-12-07T00:48:29;20.30;;;12.93;;
2388;SDS011;1205;47.984;7.668;2022-12-07T00:50:55;20.27;;;12.67;;
2388;SDS011;1205;47.984;7.668;2022-12-07T00:53:21;20.90;;;13.13;;
2388;SDS011;1205;47.984;7.668;2022-12-07T00:55:47;19.83;;;12.57;;
2388;SDS011;1205;47.984;7.668;2022-12-07T00:58:12;18.03;;;12.83;;
2388;SDS011;1205;47.984;7.668;2022-12-07T01:00:39;19.10;;;13.20;;
2388;SDS011;1205;47.984;7.668;2022-12-07T01:03:08;20.57;;;13.27;;
2388;SDS011;1205;47.984;7.668;2022-12-07T01:05:36;21.73;;;12.80;;
2388;SDS011;1205;47.984;7.668;2022-12-07T01:08:02;17.40;;;11.90;;
2388;SDS011;1205;47.984;7.668;2022-12-07T01:10:27;19.83;;;11.67;;
2388;SDS011;1205;47.984;7.668;2022-12-07T01:12:55;17.67;;;11.33;;
2388;SDS011;1205;47.984;7.668;2022-12-07T01:15:20;15.63;;;11.40;;
2388;SDS011;1205;47.984;7.668;2022-12-07T01:17:46;20.20;;;12.37;;
2388;SDS011;1205;47.984;7.668;2022-12-07T01:20:12;20.90;;;11.93;;
2388;SDS011;1205;47.984;7.668;2022-12-07T01:22:38;21.50;;;13.00;;
2388;SDS011;1205;47.984;7.668;2022-12-07T01:25:05;16.50;;;11.83;;
2388;SDS011;1205;47.984;7.668;2022-12-07T01:27:33;26.60;;;12.10;;
2388;SDS011;1205;47.984;7.668;2022-12-07T01:29:59;19.70;;;12.50;;
2388;SDS011;1205;47.984;7.668;2022-12-07T01:32:25;22.30;;;12.83;;
2388;SDS011;1205;47.984;7.668;2022-12-07T01:34:51;19.00;;;13.80;;
2388;SDS011;1205;47.984;7.668;2022-12-07T01:37:16;20.47;;;13.73;;
2388;SDS011;1205;47.984;7.668;2022-12-07T01:39:42;20.57;;;12.77;;
2388;SDS011;1205;47.984;7.668;2022-12-07T01:42:11;23.57;;;13.10;;
2388;SDS011;1205;47.984;7.668;2022-12-07T01:47:40;20.67;;;13.70;;
2388;SDS011;1205;47.984;7.668;2022-12-07T01:50:08;20.93;;;13.53;;
2388;SDS011;1205;47.984;7.668;2022-12-07T01:52:34;23.50;;;14.10;;
2388;SDS011;1205;47.984;7.668;2022-12-07T01:55:04;21.77;;;13.20;;
2388;SDS011;1205;47.984;7.668;2022-12-07T01:57:33;20.60;;;13.47;;
2388;SDS011;1205;47.984;7.668;2022-12-07T02:00:02;23.07;;;13.40;;
2388;SDS011;1205;47.984;7.668;2022-12-07T02:02:32;19.40;;;12.87;;
2388;SDS011;1205;47.984;7.668;2022-12-07T02:05:02;23.07;;;13.23;;
2388;SDS011;1205;47.984;7.668;2022-12-07T02:07:30;22.40;;;13.07;;
2388;SDS011;1205;47.984;7.668;2022-12-07T02:10:01;21.53;;;13.50;;
2388;SDS011;1205;47.984;7.668;2022-12-07T02:12:45;21.43;;;12.90;;
2388;SDS011;1205;47.984;7.668;2022-12-07T02:15:15;24.33;;;12.80;;
2388;SDS011;1205;47.984;7.668;2022-12-07T02:17:50;18.20;;;12.10;;
2388;SDS011;1205;47.984;7.668;2022-12-07T02:28:07;18.83;;;13.03;;
2388;SDS011;1205;47.984;7.668;2022-12-07T02:30:35;21.70;;;11.80;;
2388;SDS011;1205;47.984;7.668;2022-12-07T02:33:10;17.67;;;11.97;;
2388;SDS011;1205;47.984;7.668;2022-12-07T02:35:57;18.60;;;12.40;;
2388;SDS011;1205;47.984;7.668;2022-12-07T02:38:33;18.20;;;12.10;;
2388;SDS011;1205;47.984;7.668;2022-12-07T02:41:12;18.40;;;11.67;;
2388;SDS011;1205;47.984;7.668;2022-12-07T02:44:03;24.90;;;12.30;;
2388;SDS011;1205;47.984;7.668;2022-12-07T02:46:40;19.43;;;12.37;;
2388;SDS011;1205;47.984;7.668;2022-12-07T02:49:09;19.83;;;12.20;;
2388;SDS011;1205;47.984;7.668;2022-12-07T02:51:39;17.70;;;12.20;;
2388;SDS011;1205;47.984;7.668;2022-12-07T02:54:17;22.50;;;12.60;;
2388;SDS011;1205;47.984;7.668;2022-12-07T03:12:43;25.20;;;15.00;;
2388;SDS011;1205;47.984;7.668;2022-12-07T03:15:35;22.37;;;13.57;;
2388;SDS011;1205;47.984;7.668;2022-12-07T03:18:28;21.27;;;13.40;;
2388;SDS011;1205;47.984;7.668;2022-12-07T03:20:57;29.33;;;14.40;;
2388;SDS011;1205;47.984;7.668;2022-12-07T03:23:28;21.00;;;13.27;;
2388;SDS011;1205;47.984;7.668;2022-12-07T03:25:57;22.53;;;13.33;;
2388;SDS011;1205;47.984;7.668;2022-12-07T03:28:26;37.63;;;14.87;;
2388;SDS011;1205;47.984;7.668;2022-12-07T03:31:00;20.60;;;13.63;;
2388;SDS011;1205;47.984;7.668;2022-12-07T03:33:29;23.10;;;14.43;;
2388;SDS011;1205;47.984;7.668;2022-12-07T03:36:08;21.23;;;13.30;;
2388;SDS011;1205;47.984;7.668;2022-12-07T03:38:49;23.60;;;13.30;;
2388;SDS011;1205;47.984;7.668;2022-12-07T03:41:29;24.60;;;13.83;;
2388;SDS011;1205;47.984;7.668;2022-12-07T03:43:57;28.13;;;13.93;;
2388;SDS011;1205;47.984;7.668;2022-12-07T03:46:29;21.27;;;14.30;;
2388;SDS011;1205;47.984;7.668;2022-12-07T03:49:14;25.97;;;13.90;;
2388;SDS011;1205;47.984;7.668;2022-12-07T03:54:54;22.60;;;14.30;;
2388;SDS011;1205;47.984;7.668;2022-12-07T03:57:21;19.80;;;13.23;;
2388;SDS011;1205;47.984;7.668;2022-12-07T03:59:49;26.00;;;14.23;;
2388;SDS011;1205;47.984;7.668;2022-12-07T04:02:15;25.97;;;14.83;;
2388;SDS011;1205;47.984;7.668;2022-12-07T04:04:41;22.10;;;13.53;;
2388;SDS011;1205;47.984;7.668;2022-12-07T04:07:08;25.70;;;14.70;;
2388;SDS011;1205;47.984;7.668;2022-12-07T04:09:34;24.50;;;15.93;;
2388;SDS011;1205;47.984;7.668;2022-12-07T04:11:59;22.43;;;14.40;;
2388;SDS011;1205;47.984;7.668;2022-12-07T04:14:25;22.93;;;14.77;;
2388;SDS011;1205;47.984;7.668;2022-12-07T04:16:54;23.50;;;15.40;;
2388;SDS011;1205;47.984;7.668;2022-12-07T04:19:22;21.97;;;14.37;;
2388;SDS011;1205;47.984;7.668;2022-12-07T04:21:49;23.30;;;14.93;;
2388;SDS011;1205;47.984;7.668;2022-12-07T04:24:15;24.07;;;15.00;;
2388;SDS011;1205;47.984;7.668;2022-12-07T04:26:41;24.40;;;15.40;;
2388;SDS011;1205;47.984;7.668;2022-12-07T04:29:08;22.37;;;14.73;;
2388;SDS011;1205;47.984;7.668;2022-12-07T04:31:34;23.67;;;14.10;;
2388;SDS011;1205;47.984;7.668;2022-12-07T04:34:01;24.20;;;15.30;;
2388;SDS011;1205;47.984;7.668;2022-12-07T04:36:27;24.23;;;14.47;;
2388;SDS011;1205;47.984;7.668;2022-12-07T04:38:53;29.87;;;15.37;;
2388;SDS011;1205;47.984;7.668;2022-12-07T04:41:20;24.30;;;14.97;;
2388;SDS011;1205;47.984;7.668;2022-12-07T04:43:52;21.70;;;13.13;;
2388;SDS011;1205;47.984;7.668;2022-12-07T04:46:21;23.43;;;13.83;;
2388;SDS011;1205;47.984;7.668;2022-12-07T04:48:48;26.10;;;14.90;;
2388;SDS011;1205;47.984;7.668;2022-12-07T04:51:15;21.60;;;13.60;;
2388;SDS011;1205;47.984;7.668;2022-12-07T04:53:53;23.40;;;14.63;;
2388;SDS011;1205;47.984;7.668;2022-12-07T04:56:20;24.47;;;14.67;;
2388;SDS011;1205;47.984;7.668;2022-12-07T04:58:46;25.47;;;14.10;;
2388;SDS011;1205;47.984;7.668;2022-12-07T05:01:13;18.70;;;11.10;;
2388;SDS011;1205;47.984;7.668;2022-12-07T05:03:40;22.17;;;14.57;;
2388;SDS011;1205;47.984;7.668;2022-12-07T05:06:06;19.80;;;12.33;;
2388;SDS011;1205;47.984;7.668;2022-12-07T05:08:32;22.63;;;13.43;;
2388;SDS011;1205;47.984;7.668;2022-12-07T05:10:58;21.93;;;13.97;;
2388;SDS011;1205;47.984;7.668;2022-12-07T05:13:25;19.83;;;12.93;;
2388;SDS011;1205;47.984;7.668;2022-12-07T05:15:50;24.53;;;13.23;;
2388;SDS011;1205;47.984;7.668;2022-12-07T05:18:16;24.00;;;12.47;;
2388;SDS011;1205;47.984;7.668;2022-12-07T05:20:42;24.70;;;13.37;;
2388;SDS011;1205;47.984;7.668;2022-12-07T05:23:08;17.77;;;11.70;;
2388;SDS011;1205;47.984;7.668;2022-12-07T05:25:34;22.03;;;12.97;;
2388;SDS011;1205;47.984;7.668;2022-12-07T05:27:59;20.87;;;12.83;;
2388;SDS011;1205;47.984;7.668;2022-12-07T05:30:25;19.73;;;12.90;;
2388;SDS011;1205;47.984;7.668;2022-12-07T05:32:51;19.60;;;12.27;;
2388;SDS011;1205;47.984;7.668;2022-12-07T05:35:17;20.90;;;12.80;;
2388;SDS011;1205;47.984;7.668;2022-12-07T05:37:43;16.73;;;11.13;;
2388;SDS011;1205;47.984;7.668;2022-12-07T05:40:10;18.20;;;12.67;;
2388;SDS011;1205;47.984;7.668;2022-12-07T05:42:36;19.70;;;12.40;;
2388;SDS011;1205;47.984;7.668;2022-12-07T05:45:02;19.60;;;11.63;;
2388;SDS011;1205;47.984;7.668;2022-12-07T05:47:28;20.10;;;12.97;;
2388;SDS011;1205;47.984;7.668;2022-12-07T05:49:54;21.63;;;11.83;;
2388;SDS011;1205;47.984;7.668;2022-12-07T05:52:19;18.67;;;12.33;;
2388;SDS011;1205;47.984;7.668;2022-12-07T05:54:45;19.07;;;12.83;;
2388;SDS011;1205;47.984;7.668;2022-12-07T05:57:11;18.80;;;12.53;;
2388;SDS011;1205;47.984;7.668;2022-12-07T05:59:36;16.77;;;11.20;;
2388;SDS011;1205;47.984;7.668;2022-12-07T06:04:33;21.00;;;11.73;;
2388;SDS011;1205;47.984;7.668;2022-12-07T06:07:01;19.10;;;11.63;;
2388;SDS011;1205;47.984;7.668;2022-12-07T06:09:27;18.70;;;12.80;;
2388;SDS011;1205;47.984;7.668;2022-12-07T06:11:54;23.87;;;13.63;;
2388;SDS011;1205;47.984;7.668;2022-12-07T06:14:39;18.03;;;11.80;;
2388;SDS011;1205;47.984;7.668;2022-12-07T06:17:05;19.20;;;12.23;;
2388;SDS011;1205;47.984;7.668;2022-12-07T06:19:31;20.93;;;12.37;;
2388;SDS011;1205;47.984;7.668;2022-12-07T06:21:57;19.87;;;12.23;;
2388;SDS011;1205;47.984;7.668;2022-12-07T06:24:23;18.97;;;12.27;;
2388;SDS011;1205;47.984;7.668;2022-12-07T06:26:49;20.27;;;12.43;;
2388;SDS011;1205;47.984;7.668;2022-12-07T06:29:15;20.60;;;12.30;;
2388;SDS011;1205;47.984;7.668;2022-12-07T06:31:42;20.70;;;12.00;;
2388;SDS011;1205;47.984;7.668;2022-12-07T06:34:15;21.70;;;12.40;;
2388;SDS011;1205;47.984;7.668;2022-12-07T06:36:42;22.30;;;11.67;;
2388;SDS011;1205;47.984;7.668;2022-12-07T06:39:09;21.00;;;11.90;;
2388;SDS011;1205;47.984;7.668;2022-12-07T06:41:36;15.13;;;10.60;;
2388;SDS011;1205;47.984;7.668;2022-12-07T06:44:02;20.07;;;12.13;;
2388;SDS011;1205;47.984;7.668;2022-12-07T06:46:29;18.47;;;11.63;;
2388;SDS011;1205;47.984;7.668;2022-12-07T06:48:54;24.40;;;13.77;;
2388;SDS011;1205;47.984;7.668;2022-12-07T06:51:20;21.83;;;15.87;;
2388;SDS011;1205;47.984;7.668;2022-12-07T06:53:46;21.43;;;12.93;;
2388;SDS011;1205;47.984;7.668;2022-12-07T06:56:11;22.00;;;13.37;;
2388;SDS011;1205;47.984;7.668;2022-12-07T06:58:37;31.53;;;12.50;;
2388;SDS011;1205;47.984;7.668;2022-12-07T07:01:08;22.67;;;12.80;;
2388;SDS011;1205;47.984;7.668;2022-12-07T07:03:40;25.07;;;13.50;;
2388;SDS011;1205;47.984;7.668;2022-12-07T07:06:06;26.10;;;12.70;;
2388;SDS011;1205;47.984;7.668;2022-12-07T07:08:33;24.47;;;12.87;;
2388;SDS011;1205;47.984;7.668;2022-12-07T07:10:59;21.97;;;12.07;;
2388;SDS011;1205;47.984;7.668;2022-12-07T07:13:25;22.97;;;12.80;;
2388;SDS011;1205;47.984;7.668;2022-12-07T07:15:50;21.87;;;11.93;;
2388;SDS011;1205;47.984;7.668;2022-12-07T07:18:16;25.87;;;15.27;;
2388;SDS011;1205;47.984;7.668;2022-12-07T07:20:42;23.77;;;12.70;;
2388;SDS011;1205;47.984;7.668;2022-12-07T07:23:08;18.60;;;12.03;;
2388;SDS011;1205;47.984;7.668;2022-12-07T07:25:33;21.13;;;12.27;;
2388;SDS011;1205;47.984;7.668;2022-12-07T07:27:59;21.23;;;12.10;;
2388;SDS011;1205;47.984;7.668;2022-12-07T07:30:25;20.67;;;12.17;;
2388;SDS011;1205;47.984;7.668;2022-12-07T07:32:51;22.07;;;12.10;;
2388;SDS011;1205;47.984;7.668;2022-12-07T07:35:16;23.27;;;12.40;;
2388;SDS011;1205;47.984;7.668;2022-12-07T07:37:42;21.50;;;13.07;;
2388;SDS011;1205;47.984;7.668;2022-12-07T07:40:08;30.40;;;12.37;;
2388;SDS011;1205;47.984;7.668;2022-12-07T07:42:34;22.90;;;11.37;;
2388;SDS011;1205;47.984;7.668;2022-12-07T07:44:59;25.23;;;11.60;;
2388;SDS011;1205;47.984;7.668;2022-12-07T07:47:25;21.37;;;12.17;;
2388;SDS011;1205;47.984;7.668;2022-12-07T07:49:51;21.13;;;10.87;;
2388;SDS011;1205;47.984;7.668;2022-12-07T07:52:16;15.53;;;9.93;;
2388;SDS011;1205;47.984;7.668;2022-12-07T07:54:42;23.43;;;11.40;;
2388;SDS011;1205;47.984;7.668;2022-12-07T07:57:07;21.77;;;10.47;;
2388;SDS011;1205;47.984;7.668;2022-12-07T07:59:33;24.67;;;10.80;;
2388;SDS011;1205;47.984;7.668;2022-12-07T08:01:58;21.00;;;11.60;;
2388;SDS011;1205;47.984;7.668;2022-12-07T08:04:24;21.20;;;12.40;;
2388;SDS011;1205;47.984;7.668;2022-12-07T08:06:49;26.30;;;14.67;;
2388;SDS011;1205;47.984;7.668;2022-12-07T08:09:15;25.90;;;15.60;;
2388;SDS011;1205;47.984;7.668;2022-12-07T08:11:41;28.03;;;14.97;;
2388;SDS011;1205;47.984;7.668;2022-12-07T08:14:06;28.40;;;15.10;;
2388;SDS011;1205;47.984;7.668;2022-12-07T08:16:32;21.63;;;12.50;;
2388;SDS011;1205;47.984;7.668;2022-12-07T08:18:57;20.63;;;12.57;;
2388;SDS011;1205;47.984;7.668;2022-12-07T08:21:23;22.60;;;13.30;;
2388;SDS011;1205;47.984;7.668;2022-12-07T08:23:48;19.13;;;11.97;;
2388;SDS011;1205;47.984;7.668;2022-12-07T08:26:15;23.00;;;13.00;;
2388;SDS011;1205;47.984;7.668;2022-12-07T08:28:41;19.13;;;12.03;;
2388;SDS011;1205;47.984;7.668;2022-12-07T08:31:09;20.53;;;12.50;;
2388;SDS011;1205;47.984;7.668;2022-12-07T08:33:40;23.77;;;13.33;;
2388;SDS011;1205;47.984;7.668;2022-12-07T08:36:10;28.67;;;15.00;;
2388;SDS011;1205;47.984;7.668;2022-12-07T08:38:38;50.73;;;16.40;;
2388;SDS011;1205;47.984;7.668;2022-12-07T08:41:05;54.77;;;16.47;;
2388;SDS011;1205;47.984;7.668;2022-12-07T08:43:31;28.40;;;15.53;;
2388;SDS011;1205;47.984;7.668;2022-12-07T08:46:10;31.27;;;17.53;;
2388;SDS011;1205;47.984;7.668;2022-12-07T08:48:56;35.33;;;18.07;;
2388;SDS011;1205;47.984;7.668;2022-12-07T08:51:28;37.90;;;16.63;;
2388;SDS011;1205;47.984;7.668;2022-12-07T08:53:54;36.27;;;17.33;;
2388;SDS011;1205;47.984;7.668;2022-12-07T08:56:21;29.43;;;16.73;;
2388;SDS011;1205;47.984;7.668;2022-12-07T08:58:47;29.93;;;14.80;;
2388;SDS011;1205;47.984;7.668;2022-12-07T09:01:13;30.63;;;16.20;;
2388;SDS011;1205;47.984;7.668;2022-12-07T09:03:38;32.20;;;17.57;;
2388;SDS011;1205;47.984;7.668;2022-12-07T09:06:05;33.13;;;18.00;;
2388;SDS011;1205;47.984;7.668;2022-12-07T09:08:33;26.63;;;15.67;;
2388;SDS011;1205;47.984;7.668;2022-12-07T09:11:02;27.97;;;15.90;;
2388;SDS011;1205;47.984;7.668;2022-12-07T09:13:28;27.70;;;16.30;;
2388;SDS011;1205;47.984;7.668;2022-12-07T09:15:54;27.20;;;18.10;;
2388;SDS011;1205;47.984;7.668;2022-12-07T09:18:19;25.10;;;15.33;;
2388;SDS011;1205;47.984;7.668;2022-12-07T09:20:45;25.90;;;15.20;;
2388;SDS011;1205;47.984;7.668;2022-12-07T09:23:11;22.50;;;14.60;;
2388;SDS011;1205;47.984;7.668;2022-12-07T09:25:36;24.77;;;14.77;;
2388;SDS011;1205;47.984;7.668;2022-12-07T09:28:03;20.63;;;14.20;;
2388;SDS011;1205;47.984;7.668;2022-12-07T09:30:29;24.00;;;14.30;;
2388;SDS011;1205;47.984;7.668;2022-12-07T09:32:55;21.07;;;12.57;;
2388;SDS011;1205;47.984;7.668;2022-12-07T09:35:21;24.53;;;14.50;;
2388;SDS011;1205;47.984;7.668;2022-12-07T09:37:47;26.40;;;14.87;;
2388;SDS011;1205;47.984;7.668;2022-12-07T09:40:13;26.40;;;15.87;;
2388;SDS011;1205;47.984;7.668;2022-12-07T09:42:41;27.97;;;15.50;;
2388;SDS011;1205;47.984;7.668;2022-12-07T09:45:14;22.43;;;13.67;;
2388;SDS011;1205;47.984;7.668;2022-12-07T09:47:44;24.00;;;13.03;;
2388;SDS011;1205;47.984;7.668;2022-12-07T09:50:12;20.83;;;12.07;;
2388;SDS011;1205;47.984;7.668;2022-12-07T09:52:40;17.20;;;12.00;;
2388;SDS011;1205;47.984;7.668;2022-12-07T09:55:12;16.33;;;9.87;;
2388;SDS011;1205;47.984;7.668;2022-12-07T09:57:39;19.70;;;12.17;;
2388;SDS011;1205;47.984;7.668;2022-12-07T10:00:10;12.40;;;9.53;;
2388;SDS011;1205;47.984;7.668;2022-12-07T10:02:46;13.77;;;9.60;;
2388;SDS011;1205;47.984;7.668;2022-12-07T10:05:16;16.43;;;10.30;;
2388;SDS011;1205;47.984;7.668;2022-12-07T10:07:45;18.17;;;12.00;;
2388;SDS011;1205;47.984;7.668;2022-12-07T10:10:18;16.97;;;11.20;;
2388;SDS011;1205;47.984;7.668;2022-12-07T10:12:53;17.90;;;11.83;;
2388;SDS011;1205;47.984;7.668;2022-12-07T10:15:20;18.43;;;11.50;;
2388;SDS011;1205;47.984;7.668;2022-12-07T10:17:49;18.10;;;10.47;;
2388;SDS011;1205;47.984;7.668;2022-12-07T10:20:21;14.20;;;10.43;;
2388;SDS011;1205;47.984;7.668;2022-12-07T10:25:24;13.00;;;9.60;;
2388;SDS011;1205;47.984;7.668;2022-12-07T10:28:00;17.00;;;10.67;;
2388;SDS011;1205;47.984;7.668;2022-12-07T10:30:31;29.77;;;11.10;;
2388;SDS011;1205;47.984;7.668;2022-12-07T10:32:58;13.90;;;8.93;;
2388;SDS011;1205;47.984;7.668;2022-12-07T10:35:28;11.93;;;9.00;;
2388;SDS011;1205;47.984;7.668;2022-12-07T10:37:56;12.03;;;8.90;;
2388;SDS011;1205;47.984;7.668;2022-12-07T10:40:28;11.03;;;7.43;;
2388;SDS011;1205;47.984;7.668;2022-12-07T10:45:30;12.17;;;8.67;;
2388;SDS011;1205;47.984;7.668;2022-12-07T10:56:33;12.37;;;8.90;;
2388;SDS011;1205;47.984;7.668;2022-12-07T11:01:49;10.20;;;7.53;;
2388;SDS011;1205;47.984;7.668;2022-12-07T11:08:09;8.60;;;6.53;;
2388;SDS011;1205;47.984;7.668;2022-12-07T11:21:07;6.47;;;5.07;;
2388;SDS011;1205;47.984;7.668;2022-12-07T11:24:17;4.30;;;3.80;;
2388;SDS011;1205;47.984;7.668;2022-12-07T11:26:56;5.60;;;4.03;;
2388;SDS011;1205;47.984;7.668;2022-12-07T11:35:24;3.83;;;3.57;;
2388;SDS011;1205;47.984;7.668;2022-12-07T11:38:07;4.43;;;3.43;;
2388;SDS011;1205;47.984;7.668;2022-12-07T11:40:39;4.37;;;4.03;;
2388;SDS011;1205;47.984;7.668;2022-12-07T11:43:13;4.27;;;3.87;;
2388;SDS011;1205;47.984;7.668;2022-12-07T11:46:03;3.33;;;3.10;;
2388;SDS011;1205;47.984;7.668;2022-12-07T11:48:45;3.20;;;3.00;;
2388;SDS011;1205;47.984;7.668;2022-12-07T11:51:15;4.00;;;3.70;;
2388;SDS011;1205;47.984;7.668;2022-12-07T11:53:46;3.40;;;3.10;;
2388;SDS011;1205;47.984;7.668;2022-12-07T11:56:20;3.57;;;3.27;;
2388;SDS011;1205;47.984;7.668;2022-12-07T12:06:44;3.10;;;2.90;;
2388;SDS011;1205;47.984;7.668;2022-12-07T12:09:27;2.90;;;2.70;;
2388;SDS011;1205;47.984;7.668;2022-12-07T12:12:15;3.40;;;3.20;;
2388;SDS011;1205;47.984;7.668;2022-12-07T12:20:32;6.03;;;4.47;;
2388;SDS011;1205;47.984;7.668;2022-12-07T12:23:12;4.30;;;3.90;;
2388;SDS011;1205;47.984;7.668;2022-12-07T12:25:50;3.93;;;3.20;;
2388;SDS011;1205;47.984;7.668;2022-12-07T12:33:47;3.73;;;3.43;;
2388;SDS011;1205;47.984;7.668;2022-12-07T12:36:19;3.57;;;3.20;;
2388;SDS011;1205;47.984;7.668;2022-12-07T12:38:51;5.40;;;4.17;;
2388;SDS011;1205;47.984;7.668;2022-12-07T12:46:55;5.20;;;4.70;;
2388;SDS011;1205;47.984;7.668;2022-12-07T12:51:54;5.27;;;4.77;;
2388;SDS011;1205;47.984;7.668;2022-12-07T12:54:38;5.17;;;4.70;;
2388;SDS011;1205;47.984;7.668;2022-12-07T12:57:05;7.00;;;4.80;;
2388;SDS011;1205;47.984;7.668;2022-12-07T13:05:03;5.53;;;4.60;;
2388;SDS011;1205;47.984;7.668;2022-12-07T13:08:28;5.30;;;4.80;;
2388;SDS011;1205;47.984;7.668;2022-12-07T13:10:32;9.57;;;6.77;;
2388;SDS011;1205;47.984;7.668;2022-12-07T13:23:25;5.70;;;4.80;;
2388;SDS011;1205;47.984;7.668;2022-12-07T13:36:59;10.83;;;6.00;;
2388;SDS011;1205;47.984;7.668;2022-12-07T13:39:27;9.70;;;5.53;;
2388;SDS011;1205;47.984;7.668;2022-12-07T13:41:53;13.17;;;8.47;;
2388;SDS011;1205;47.984;7.668;2022-12-07T13:44:21;17.67;;;9.73;;
2388;SDS011;1205;47.984;7.668;2022-12-07T13:49:27;13.90;;;8.13;;
2388;SDS011;1205;47.984;7.668;2022-12-07T13:51:54;9.60;;;6.30;;
2388;SDS011;1205;47.984;7.668;2022-12-07T13:54:43;7.80;;;6.10;;
2388;SDS011;1205;47.984;7.668;2022-12-07T13:57:32;9.07;;;5.53;;
2388;SDS011;1205;47.984;7.668;2022-12-07T14:00:00;8.80;;;6.47;;
2388;SDS011;1205;47.984;7.668;2022-12-07T14:02:29;8.80;;;6.20;;
2388;SDS011;1205;47.984;7.668;2022-12-07T14:07:55;7.63;;;6.63;;
2388;SDS011;1205;47.984;7.668;2022-12-07T14:10:39;9.67;;;7.37;;
2388;SDS011;1205;47.984;7.668;2022-12-07T14:13:27;9.30;;;6.60;;
2388;SDS011;1205;47.984;7.668;2022-12-07T14:15:56;11.27;;;7.20;;
2388;SDS011;1205;47.984;7.668;2022-12-07T14:23:41;11.80;;;6.63;;
2388;SDS011;1205;47.984;7.668;2022-12-07T14:26:12;7.10;;;6.10;;
2388;SDS011;1205;47.984;7.668;2022-12-07T14:28:41;6.77;;;6.00;;
2388;SDS011;1205;47.984;7.668;2022-12-07T14:31:10;7.70;;;6.60;;
2388;SDS011;1205;47.984;7.668;2022-12-07T14:33:38;7.37;;;6.03;;
2388;SDS011;1205;47.984;7.668;2022-12-07T14:36:13;13.90;;;6.17;;
2388;SDS011;1205;47.984;7.668;2022-12-07T14:38:39;10.03;;;6.60;;
2388;SDS011;1205;47.984;7.668;2022-12-07T14:41:06;8.10;;;6.70;;
2388;SDS011;1205;47.984;7.668;2022-12-07T14:43:58;16.00;;;8.97;;
2388;SDS011;1205;47.984;7.668;2022-12-07T14:46:24;15.83;;;9.17;;
2388;SDS011;1205;47.984;7.668;2022-12-07T14:48:50;17.47;;;8.97;;
2388;SDS011;1205;47.984;7.668;2022-12-07T14:51:15;16.93;;;11.53;;
2388;SDS011;1205;47.984;7.668;2022-12-07T14:53:42;13.27;;;9.47;;
2388;SDS011;1205;47.984;7.668;2022-12-07T14:56:13;15.20;;;10.37;;
2388;SDS011;1205;47.984;7.668;2022-12-07T14:58:39;17.40;;;12.03;;
2388;SDS011;1205;47.984;7.668;2022-12-07T15:01:05;15.83;;;10.20;;
2388;SDS011;1205;47.984;7.668;2022-12-07T15:03:30;14.47;;;9.77;;
2388;SDS011;1205;47.984;7.668;2022-12-07T15:05:56;12.20;;;8.80;;
2388;SDS011;1205;47.984;7.668;2022-12-07T15:08:22;11.77;;;8.07;;
2388;SDS011;1205;47.984;7.668;2022-12-07T15:10:47;8.70;;;7.20;;
2388;SDS011;1205;47.984;7.668;2022-12-07T15:13:13;8.53;;;7.20;;
2388;SDS011;1205;47.984;7.668;2022-12-07T15:15:57;8.50;;;7.10;;
2388;SDS011;1205;47.984;7.668;2022-12-07T15:18:23;10.30;;;7.20;;
2388;SDS011;1205;47.984;7.668;2022-12-07T15:20:49;10.00;;;7.83;;
2388;SDS011;1205;47.984;7.668;2022-12-07T15:23:15;10.23;;;7.93;;
2388;SDS011;1205;47.984;7.668;2022-12-07T15:25:41;13.93;;;9.60;;
2388;SDS011;1205;47.984;7.668;2022-12-07T15:28:07;13.20;;;10.00;;
2388;SDS011;1205;47.984;7.668;2022-12-07T15:30:33;13.73;;;9.67;;
2388;SDS011;1205;47.984;7.668;2022-12-07T15:32:58;20.30;;;12.70;;
2388;SDS011;1205;47.984;7.668;2022-12-07T15:35:24;19.23;;;12.90;;
2388;SDS011;1205;47.984;7.668;2022-12-07T15:37:49;23.00;;;14.03;;
2388;SDS011;1205;47.984;7.668;2022-12-07T15:40:15;21.53;;;12.60;;
2388;SDS011;1205;47.984;7.668;2022-12-07T15:42:41;16.30;;;10.77;;
2388;SDS011;1205;47.984;7.668;2022-12-07T15:45:07;15.57;;;10.50;;
2388;SDS011;1205;47.984;7.668;2022-12-07T15:47:37;16.47;;;10.30;;
2388;SDS011;1205;47.984;7.668;2022-12-07T15:50:06;15.17;;;9.97;;
2388;SDS011;1205;47.984;7.668;2022-12-07T15:52:34;12.83;;;8.97;;
2388;SDS011;1205;47.984;7.668;2022-12-07T15:55:00;13.80;;;9.37;;
2388;SDS011;1205;47.984;7.668;2022-12-07T15:57:28;18.10;;;10.33;;
2388;SDS011;1205;47.984;7.668;2022-12-07T15:59:57;19.10;;;11.50;;
2388;SDS011;1205;47.984;7.668;2022-12-07T16:02:23;19.60;;;10.80;;
2388;SDS011;1205;47.984;7.668;2022-12-07T16:04:50;19.97;;;13.03;;
2388;SDS011;1205;47.984;7.668;2022-12-07T16:07:16;19.17;;;13.40;;
2388;SDS011;1205;47.984;7.668;2022-12-07T16:09:42;22.67;;;13.73;;
2388;SDS011;1205;47.984;7.668;2022-12-07T16:12:09;22.80;;;13.40;;
2388;SDS011;1205;47.984;7.668;2022-12-07T16:14:36;27.83;;;14.20;;
2388;SDS011;1205;47.984;7.668;2022-12-07T16:17:02;22.30;;;11.30;;
2388;SDS011;1205;47.984;7.668;2022-12-07T16:19:29;16.43;;;10.37;;
2388;SDS011;1205;47.984;7.668;2022-12-07T16:21:55;12.60;;;8.43;;
2388;SDS011;1205;47.984;7.668;2022-12-07T16:24:21;13.60;;;8.07;;
2388;SDS011;1205;47.984;7.668;2022-12-07T16:26:46;11.40;;;8.40;;
2388;SDS011;1205;47.984;7.668;2022-12-07T16:29:12;11.83;;;7.77;;
2388;SDS011;1205;47.984;7.668;2022-12-07T16:31:38;10.03;;;8.10;;
2388;SDS011;1205;47.984;7.668;2022-12-07T16:34:05;10.93;;;7.53;;
2388;SDS011;1205;47.984;7.668;2022-12-07T16:36:31;8.47;;;7.20;;
2388;SDS011;1205;47.984;7.668;2022-12-07T16:38:58;16.67;;;9.37;;
2388;SDS011;1205;47.984;7.668;2022-12-07T16:41:24;15.60;;;9.00;;
2388;SDS011;1205;47.984;7.668;2022-12-07T16:43:50;19.83;;;11.43;;
2388;SDS011;1205;47.984;7.668;2022-12-07T16:46:15;23.07;;;14.20;;
2388;SDS011;1205;47.984;7.668;2022-12-07T16:48:41;26.70;;;14.23;;
2388;SDS011;1205;47.984;7.668;2022-12-07T16:51:09;18.40;;;10.83;;
2388;SDS011;1205;47.984;7.668;2022-12-07T16:53:36;22.60;;;12.87;;
2388;SDS011;1205;47.984;7.668;2022-12-07T16:56:03;11.43;;;8.10;;
2388;SDS011;1205;47.984;7.668;2022-12-07T16:58:34;13.47;;;8.57;;
2388;SDS011;1205;47.984;7.668;2022-12-07T17:00:59;12.87;;;8.33;;
2388;SDS011;1205;47.984;7.668;2022-12-07T17:03:33;13.97;;;9.60;;
2388;SDS011;1205;47.984;7.668;2022-12-07T17:05:58;13.93;;;8.83;;
2388;SDS011;1205;47.984;7.668;2022-12-07T17:08:24;12.50;;;8.67;;
2388;SDS011;1205;47.984;7.668;2022-12-07T17:10:49;14.80;;;9.27;;
2388;SDS011;1205;47.984;7.668;2022-12-07T17:13:15;14.83;;;9.00;;
2388;SDS011;1205;47.984;7.668;2022-12-07T17:16:00;15.17;;;8.97;;
2388;SDS011;1205;47.984;7.668;2022-12-07T17:18:29;17.60;;;8.73;;